sensor_id;sensor_type;location;lat;lon;timestamp;P1;durP1;ratioP1;P2;durP2;ratioP2
15342;SDS011;7771;48.478;8.936;2023-09-19T00:00:34;1.42;;;0.90;;
15342;SDS011;7771;48.478;8.936;2023-09-19T00:03:01;1.50;;;0.90;;
15342;SDS011;7771;48.478;8.936;2023-09-19T00:05:28;1.85;;;0.90;;
15342;SDS011;7771;48.478;8.936;2023-09-19T00:07:55;0.77;;;0.77;;
15342;SDS011;7771;48.478;8.936;2023-09-19T00:10:22;1.87;;;0.82;;
15342;SDS011;7771;48.478;8.936;2023-09-19T00:12:51;1.52;;;0.90;;
15342;SDS011;7771;48.478;8.936;2023-09-19T00:15:18;3.08;;;0.90;;
15342;SDS011;7771;48.478;8.936;2023-09-19T00:17:45;3.62;;;0.95;;
15342;SDS011;7771;48.478;8.936;2023-09-19T00:20:14;1.85;;;0.85;;
15342;SDS011;7771;48.478;8.936;2023-09-19T00:22:42;0.68;;;0.65;;
15342;SDS011;7771;48.478;8.936;2023-09-19T00:25:10;0.95;;;0.80;;
15342;SDS011;7771;48.478;8.936;2023-09-19T00:27:36;1.60;;;0.70;;
15342;SDS011;7771;48.478;8.936;2023-09-19T00:30:03;0.80;;;0.50;;
15342;SDS011;7771;48.478;8.936;2023-09-19T00:32:30;1.30;;;1.12;;
15342;SDS011;7771;48.478;8.936;2023-09-19T00:34:57;3.60;;;0.80;;
15342;SDS011;7771;48.478;8.936;2023-09-19T00:37:25;1.12;;;0.70;;
15342;SDS011;7771;48.478;8.936;2023-09-19T00:39:52;0.65;;;0.57;;
15342;SDS011;7771;48.478;8.936;2023-09-19T00:42:20;0.82;;;0.80;;
15342;SDS011;7771;48.478;8.936;2023-09-19T00:44:47;0.90;;;0.75;;
15342;SDS011;7771;48.478;8.936;2023-09-19T00:47:14;0.93;;;0.60;;
15342;SDS011;7771;48.478;8.936;2023-09-19T00:49:41;1.05;;;0.65;;
15342;SDS011;7771;48.478;8.936;2023-09-19T00:52:08;0.70;;;0.60;;
15342;SDS011;7771;48.478;8.936;2023-09-19T00:54:38;2.65;;;0.90;;
15342;SDS011;7771;48.478;8.936;2023-09-19T00:57:05;0.82;;;0.75;;
15342;SDS011;7771;48.478;8.936;2023-09-19T00:59:32;1.25;;;0.80;;
15342;SDS011;7771;48.478;8.936;2023-09-19T01:01:59;1.05;;;0.68;;
15342;SDS011;7771;48.478;8.936;2023-09-19T01:04:27;0.95;;;0.85;;
15342;SDS011;7771;48.478;8.936;2023-09-19T01:06:55;0.85;;;0.75;;
15342;SDS011;7771;48.478;8.936;2023-09-19T01:09:23;0.85;;;0.73;;
15342;SDS011;7771;48.478;8.936;2023-09-19T01:11:51;1.83;;;0.90;;
15342;SDS011;7771;48.478;8.936;2023-09-19T01:14:27;1.92;;;1.30;;
15342;SDS011;7771;48.478;8.936;2023-09-19T01:16:55;3.30;;;1.10;;
15342;SDS011;7771;48.478;8.936;2023-09-19T01:19:28;2.83;;;1.00;;
15342;SDS011;7771;48.478;8.936;2023-09-19T01:21:58;1.10;;;0.90;;
15342;SDS011;7771;48.478;8.936;2023-09-19T01:27:28;2.92;;;1.12;;
15342;SDS011;7771;48.478;8.936;2023-09-19T01:29:48;1.85;;;1.12;;
15342;SDS011;7771;48.478;8.936;2023-09-19T01:32:17;1.52;;;0.80;;
15342;SDS011;7771;48.478;8.936;2023-09-19T01:34:45;1.75;;;1.10;;
15342;SDS011;7771;48.478;8.936;2023-09-19T01:37:16;1.90;;;0.85;;
15342;SDS011;7771;48.478;8.936;2023-09-19T01:39:42;1.15;;;0.85;;
15342;SDS011;7771;48.478;8.936;2023-09-19T01:42:16;1.92;;;1.10;;
15342;SDS011;7771;48.478;8.936;2023-09-19T01:47:25;1.17;;;0.80;;
15342;SDS011;7771;48.478;8.936;2023-09-19T01:49:55;1.52;;;0.90;;
15342;SDS011;7771;48.478;8.936;2023-09-19T01:52:22;1.35;;;0.93;;
15342;SDS011;7771;48.478;8.936;2023-09-19T01:54:51;1.12;;;0.93;;
15342;SDS011;7771;48.478;8.936;2023-09-19T01:57:20;2.53;;;1.10;;
15342;SDS011;7771;48.478;8.936;2023-09-19T02:00:03;1.45;;;0.95;;
15342;SDS011;7771;48.478;8.936;2023-09-19T02:02:31;1.20;;;0.93;;
15342;SDS011;7771;48.478;8.936;2023-09-19T02:05:00;1.35;;;0.80;;
15342;SDS011;7771;48.478;8.936;2023-09-19T02:07:26;1.85;;;1.10;;
15342;SDS011;7771;48.478;8.936;2023-09-19T02:09:53;2.65;;;0.95;;
15342;SDS011;7771;48.478;8.936;2023-09-19T02:12:20;1.50;;;1.00;;
15342;SDS011;7771;48.478;8.936;2023-09-19T02:14:47;0.93;;;0.80;;
15342;SDS011;7771;48.478;8.936;2023-09-19T02:17:14;1.62;;;1.25;;
15342;SDS011;7771;48.478;8.936;2023-09-19T02:19:41;1.40;;;1.10;;
15342;SDS011;7771;48.478;8.936;2023-09-19T02:22:09;1.90;;;1.10;;
15342;SDS011;7771;48.478;8.936;2023-09-19T02:24:37;2.00;;;1.00;;
15342;SDS011;7771;48.478;8.936;2023-09-19T02:27:04;1.90;;;0.98;;
15342;SDS011;7771;48.478;8.936;2023-09-19T02:29:31;1.55;;;1.00;;
15342;SDS011;7771;48.478;8.936;2023-09-19T02:31:57;2.60;;;1.33;;
15342;SDS011;7771;48.478;8.936;2023-09-19T02:34:25;2.37;;;1.15;;
15342;SDS011;7771;48.478;8.936;2023-09-19T02:36:51;1.85;;;1.20;;
15342;SDS011;7771;48.478;8.936;2023-09-19T02:39:19;4.45;;;1.30;;
15342;SDS011;7771;48.478;8.936;2023-09-19T02:41:46;1.40;;;1.00;;
15342;SDS011;7771;48.478;8.936;2023-09-19T02:44:13;4.85;;;1.25;;
15342;SDS011;7771;48.478;8.936;2023-09-19T02:46:39;1.52;;;1.00;;
15342;SDS011;7771;48.478;8.936;2023-09-19T02:49:06;1.52;;;1.25;;
15342;SDS011;7771;48.478;8.936;2023-09-19T02:51:34;1.33;;;1.00;;
15342;SDS011;7771;48.478;8.936;2023-09-19T02:54:02;0.80;;;0.80;;
15342;SDS011;7771;48.478;8.936;2023-09-19T02:56:28;3.03;;;1.12;;
15342;SDS011;7771;48.478;8.936;2023-09-19T02:58:55;1.30;;;1.00;;
15342;SDS011;7771;48.478;8.936;2023-09-19T03:01:22;1.62;;;1.10;;
15342;SDS011;7771;48.478;8.936;2023-09-19T03:03:49;3.03;;;1.10;;
15342;SDS011;7771;48.478;8.936;2023-09-19T03:06:17;1.90;;;1.15;;
15342;SDS011;7771;48.478;8.936;2023-09-19T03:08:44;1.70;;;1.25;;
15342;SDS011;7771;48.478;8.936;2023-09-19T03:11:10;1.55;;;1.08;;
15342;SDS011;7771;48.478;8.936;2023-09-19T03:13:39;4.15;;;1.10;;
15342;SDS011;7771;48.478;8.936;2023-09-19T03:16:06;2.23;;;1.20;;
15342;SDS011;7771;48.478;8.936;2023-09-19T03:18:34;2.77;;;0.97;;
15342;SDS011;7771;48.478;8.936;2023-09-19T03:21:01;1.50;;;1.00;;
15342;SDS011;7771;48.478;8.936;2023-09-19T03:23:28;1.52;;;1.20;;
15342;SDS011;7771;48.478;8.936;2023-09-19T03:25:55;1.40;;;1.08;;
15342;SDS011;7771;48.478;8.936;2023-09-19T03:28:23;1.45;;;1.35;;
15342;SDS011;7771;48.478;8.936;2023-09-19T03:33:24;2.33;;;1.17;;
15342;SDS011;7771;48.478;8.936;2023-09-19T03:35:53;1.25;;;0.85;;
15342;SDS011;7771;48.478;8.936;2023-09-19T03:38:19;4.35;;;1.15;;
15342;SDS011;7771;48.478;8.936;2023-09-19T03:40:47;1.27;;;0.90;;
15342;SDS011;7771;48.478;8.936;2023-09-19T03:43:13;1.67;;;1.20;;
15342;SDS011;7771;48.478;8.936;2023-09-19T03:45:40;1.90;;;1.20;;
15342;SDS011;7771;48.478;8.936;2023-09-19T03:48:09;3.30;;;1.45;;
15342;SDS011;7771;48.478;8.936;2023-09-19T03:50:35;2.37;;;1.20;;
15342;SDS011;7771;48.478;8.936;2023-09-19T03:53:03;2.05;;;1.00;;
15342;SDS011;7771;48.478;8.936;2023-09-19T03:55:29;1.20;;;1.08;;
15342;SDS011;7771;48.478;8.936;2023-09-19T03:57:56;1.48;;;1.23;;
15342;SDS011;7771;48.478;8.936;2023-09-19T04:00:24;1.08;;;0.98;;
15342;SDS011;7771;48.478;8.936;2023-09-19T04:02:52;5.15;;;1.20;;
15342;SDS011;7771;48.478;8.936;2023-09-19T04:05:18;2.47;;;1.37;;
15342;SDS011;7771;48.478;8.936;2023-09-19T04:07:45;5.57;;;1.30;;
15342;SDS011;7771;48.478;8.936;2023-09-19T04:10:11;2.25;;;1.60;;
15342;SDS011;7771;48.478;8.936;2023-09-19T04:12:40;3.58;;;1.60;;
15342;SDS011;7771;48.478;8.936;2023-09-19T04:15:06;1.55;;;1.25;;
15342;SDS011;7771;48.478;8.936;2023-09-19T04:17:34;1.85;;;1.20;;
15342;SDS011;7771;48.478;8.936;2023-09-19T04:20:01;2.95;;;1.42;;
15342;SDS011;7771;48.478;8.936;2023-09-19T04:22:28;3.20;;;1.45;;
15342;SDS011;7771;48.478;8.936;2023-09-19T04:24:54;1.65;;;1.30;;
15342;SDS011;7771;48.478;8.936;2023-09-19T04:27:22;1.73;;;1.17;;
15342;SDS011;7771;48.478;8.936;2023-09-19T04:29:50;2.53;;;1.40;;
15342;SDS011;7771;48.478;8.936;2023-09-19T04:32:18;1.70;;;1.40;;
15342;SDS011;7771;48.478;8.936;2023-09-19T04:34:46;1.62;;;1.17;;
15342;SDS011;7771;48.478;8.936;2023-09-19T04:37:14;3.08;;;1.40;;
15342;SDS011;7771;48.478;8.936;2023-09-19T04:39:42;4.18;;;1.77;;
15342;SDS011;7771;48.478;8.936;2023-09-19T04:42:08;2.75;;;1.40;;
15342;SDS011;7771;48.478;8.936;2023-09-19T04:44:35;2.37;;;1.20;;
15342;SDS011;7771;48.478;8.936;2023-09-19T04:47:03;3.37;;;1.40;;
15342;SDS011;7771;48.478;8.936;2023-09-19T04:49:31;1.58;;;1.30;;
15342;SDS011;7771;48.478;8.936;2023-09-19T04:51:59;1.75;;;1.50;;
15342;SDS011;7771;48.478;8.936;2023-09-19T04:54:27;2.35;;;1.40;;
15342;SDS011;7771;48.478;8.936;2023-09-19T04:56:54;2.03;;;1.45;;
15342;SDS011;7771;48.478;8.936;2023-09-19T04:59:21;3.53;;;1.25;;
15342;SDS011;7771;48.478;8.936;2023-09-19T05:01:49;3.58;;;1.70;;
15342;SDS011;7771;48.478;8.936;2023-09-19T05:04:15;2.65;;;1.42;;
15342;SDS011;7771;48.478;8.936;2023-09-19T05:06:42;1.70;;;1.30;;
15342;SDS011;7771;48.478;8.936;2023-09-19T05:09:08;5.47;;;1.52;;
15342;SDS011;7771;48.478;8.936;2023-09-19T05:11:37;2.17;;;1.10;;
15342;SDS011;7771;48.478;8.936;2023-09-19T05:14:04;1.50;;;1.40;;
15342;SDS011;7771;48.478;8.936;2023-09-19T05:16:31;13.75;;;7.45;;
15342;SDS011;7771;48.478;8.936;2023-09-19T05:18:57;4.40;;;3.25;;
15342;SDS011;7771;48.478;8.936;2023-09-19T05:21:25;4.65;;;1.85;;
15342;SDS011;7771;48.478;8.936;2023-09-19T05:23:53;1.98;;;1.50;;
15342;SDS011;7771;48.478;8.936;2023-09-19T05:26:20;1.93;;;1.30;;
15342;SDS011;7771;48.478;8.936;2023-09-19T05:28:47;3.40;;;2.10;;
15342;SDS011;7771;48.478;8.936;2023-09-19T05:31:14;4.43;;;3.72;;
15342;SDS011;7771;48.478;8.936;2023-09-19T05:33:42;4.13;;;2.77;;
15342;SDS011;7771;48.478;8.936;2023-09-19T05:36:11;3.12;;;2.40;;
15342;SDS011;7771;48.478;8.936;2023-09-19T05:38:38;3.35;;;3.00;;
15342;SDS011;7771;48.478;8.936;2023-09-19T05:41:06;5.03;;;4.35;;
15342;SDS011;7771;48.478;8.936;2023-09-19T05:43:34;4.75;;;4.00;;
15342;SDS011;7771;48.478;8.936;2023-09-19T05:46:00;5.10;;;4.62;;
15342;SDS011;7771;48.478;8.936;2023-09-19T05:48:29;4.53;;;4.07;;
15342;SDS011;7771;48.478;8.936;2023-09-19T05:50:55;7.53;;;5.15;;
15342;SDS011;7771;48.478;8.936;2023-09-19T05:53:22;4.62;;;3.78;;
15342;SDS011;7771;48.478;8.936;2023-09-19T05:55:50;5.00;;;4.35;;
15342;SDS011;7771;48.478;8.936;2023-09-19T05:58:18;4.70;;;4.07;;
15342;SDS011;7771;48.478;8.936;2023-09-19T06:00:45;4.15;;;3.65;;
15342;SDS011;7771;48.478;8.936;2023-09-19T06:03:11;7.12;;;4.93;;
15342;SDS011;7771;48.478;8.936;2023-09-19T06:05:39;5.65;;;3.25;;
15342;SDS011;7771;48.478;8.936;2023-09-19T06:08:07;4.80;;;2.20;;
15342;SDS011;7771;48.478;8.936;2023-09-19T06:10:36;2.87;;;2.05;;
15342;SDS011;7771;48.478;8.936;2023-09-19T06:13:02;2.65;;;1.35;;
15342;SDS011;7771;48.478;8.936;2023-09-19T06:15:32;1.55;;;1.40;;
15342;SDS011;7771;48.478;8.936;2023-09-19T06:17:59;2.20;;;1.48;;
15342;SDS011;7771;48.478;8.936;2023-09-19T06:20:26;7.90;;;4.32;;
15342;SDS011;7771;48.478;8.936;2023-09-19T06:22:54;2.67;;;1.45;;
15342;SDS011;7771;48.478;8.936;2023-09-19T06:25:21;3.80;;;3.42;;
15342;SDS011;7771;48.478;8.936;2023-09-19T06:27:48;5.10;;;3.80;;
15342;SDS011;7771;48.478;8.936;2023-09-19T06:30:16;3.20;;;2.90;;
15342;SDS011;7771;48.478;8.936;2023-09-19T06:32:43;2.95;;;2.42;;
15342;SDS011;7771;48.478;8.936;2023-09-19T06:35:12;2.10;;;1.70;;
15342;SDS011;7771;48.478;8.936;2023-09-19T06:37:40;2.37;;;1.45;;
15342;SDS011;7771;48.478;8.936;2023-09-19T06:40:08;1.77;;;1.10;;
15342;SDS011;7771;48.478;8.936;2023-09-19T06:42:41;2.50;;;1.30;;
15342;SDS011;7771;48.478;8.936;2023-09-19T06:45:08;3.05;;;1.40;;
15342;SDS011;7771;48.478;8.936;2023-09-19T06:47:35;2.90;;;1.40;;
15342;SDS011;7771;48.478;8.936;2023-09-19T06:50:02;2.65;;;1.45;;
15342;SDS011;7771;48.478;8.936;2023-09-19T06:52:31;3.47;;;1.37;;
15342;SDS011;7771;48.478;8.936;2023-09-19T06:54:58;2.75;;;1.40;;
15342;SDS011;7771;48.478;8.936;2023-09-19T06:57:26;2.40;;;1.80;;
15342;SDS011;7771;48.478;8.936;2023-09-19T06:59:54;3.20;;;2.90;;
15342;SDS011;7771;48.478;8.936;2023-09-19T07:02:20;3.10;;;2.53;;
15342;SDS011;7771;48.478;8.936;2023-09-19T07:04:47;3.67;;;2.50;;
15342;SDS011;7771;48.478;8.936;2023-09-19T07:07:15;3.45;;;2.80;;
15342;SDS011;7771;48.478;8.936;2023-09-19T07:09:42;4.15;;;2.85;;
15342;SDS011;7771;48.478;8.936;2023-09-19T07:12:10;5.15;;;3.70;;
15342;SDS011;7771;48.478;8.936;2023-09-19T07:14:36;2.97;;;2.53;;
15342;SDS011;7771;48.478;8.936;2023-09-19T07:17:03;2.30;;;1.90;;
15342;SDS011;7771;48.478;8.936;2023-09-19T07:19:31;2.47;;;2.28;;
15342;SDS011;7771;48.478;8.936;2023-09-19T07:21:59;9.43;;;5.60;;
15342;SDS011;7771;48.478;8.936;2023-09-19T07:24:26;2.78;;;2.28;;
15342;SDS011;7771;48.478;8.936;2023-09-19T07:26:54;1.98;;;1.30;;
15342;SDS011;7771;48.478;8.936;2023-09-19T07:29:21;1.42;;;1.00;;
15342;SDS011;7771;48.478;8.936;2023-09-19T07:31:48;3.78;;;1.02;;
15342;SDS011;7771;48.478;8.936;2023-09-19T07:34:15;3.60;;;1.35;;
15342;SDS011;7771;48.478;8.936;2023-09-19T07:36:43;2.60;;;1.33;;
15342;SDS011;7771;48.478;8.936;2023-09-19T07:39:11;1.70;;;1.00;;
15342;SDS011;7771;48.478;8.936;2023-09-19T07:41:37;2.00;;;1.05;;
15342;SDS011;7771;48.478;8.936;2023-09-19T07:44:04;4.75;;;1.12;;
15342;SDS011;7771;48.478;8.936;2023-09-19T07:46:32;1.25;;;1.08;;
15342;SDS011;7771;48.478;8.936;2023-09-19T07:48:59;3.08;;;1.20;;
15342;SDS011;7771;48.478;8.936;2023-09-19T07:51:27;1.42;;;1.20;;
15342;SDS011;7771;48.478;8.936;2023-09-19T07:53:56;2.37;;;1.15;;
15342;SDS011;7771;48.478;8.936;2023-09-19T07:56:23;2.05;;;1.25;;
15342;SDS011;7771;48.478;8.936;2023-09-19T07:58:51;1.30;;;1.00;;
15342;SDS011;7771;48.478;8.936;2023-09-19T08:01:19;1.12;;;1.00;;
15342;SDS011;7771;48.478;8.936;2023-09-19T08:03:47;2.10;;;1.10;;
15342;SDS011;7771;48.478;8.936;2023-09-19T08:06:14;2.40;;;1.37;;
15342;SDS011;7771;48.478;8.936;2023-09-19T08:08:40;2.92;;;1.40;;
15342;SDS011;7771;48.478;8.936;2023-09-19T08:11:08;1.62;;;1.30;;
15342;SDS011;7771;48.478;8.936;2023-09-19T08:13:39;1.98;;;1.10;;
15342;SDS011;7771;48.478;8.936;2023-09-19T08:16:10;2.08;;;0.98;;
15342;SDS011;7771;48.478;8.936;2023-09-19T08:18:38;4.15;;;1.20;;
15342;SDS011;7771;48.478;8.936;2023-09-19T08:21:06;2.33;;;1.62;;
15342;SDS011;7771;48.478;8.936;2023-09-19T08:23:34;2.90;;;1.62;;
15342;SDS011;7771;48.478;8.936;2023-09-19T08:26:00;1.75;;;1.27;;
15342;SDS011;7771;48.478;8.936;2023-09-19T08:28:27;2.72;;;1.40;;
15342;SDS011;7771;48.478;8.936;2023-09-19T08:30:54;2.67;;;1.50;;
15342;SDS011;7771;48.478;8.936;2023-09-19T08:33:21;1.70;;;1.20;;
15342;SDS011;7771;48.478;8.936;2023-09-19T08:35:48;1.20;;;1.00;;
15342;SDS011;7771;48.478;8.936;2023-09-19T08:38:17;1.20;;;1.10;;
15342;SDS011;7771;48.478;8.936;2023-09-19T08:40:44;1.95;;;1.02;;
15342;SDS011;7771;48.478;8.936;2023-09-19T08:43:12;1.40;;;1.00;;
15342;SDS011;7771;48.478;8.936;2023-09-19T08:45:40;2.12;;;1.10;;
15342;SDS011;7771;48.478;8.936;2023-09-19T08:48:16;1.50;;;0.75;;
15342;SDS011;7771;48.478;8.936;2023-09-19T08:50:56;2.83;;;1.30;;
15342;SDS011;7771;48.478;8.936;2023-09-19T08:53:26;2.47;;;0.90;;
15342;SDS011;7771;48.478;8.936;2023-09-19T08:55:53;4.85;;;1.20;;
15342;SDS011;7771;48.478;8.936;2023-09-19T08:58:21;3.53;;;1.10;;
15342;SDS011;7771;48.478;8.936;2023-09-19T09:00:49;2.00;;;1.17;;
15342;SDS011;7771;48.478;8.936;2023-09-19T09:03:16;1.20;;;0.98;;
15342;SDS011;7771;48.478;8.936;2023-09-19T09:05:43;1.23;;;0.80;;
15342;SDS011;7771;48.478;8.936;2023-09-19T09:08:10;1.33;;;1.10;;
15342;SDS011;7771;48.478;8.936;2023-09-19T09:10:37;1.10;;;0.90;;
15342;SDS011;7771;48.478;8.936;2023-09-19T09:13:05;4.72;;;1.50;;
15342;SDS011;7771;48.478;8.936;2023-09-19T09:15:34;2.92;;;1.15;;
15342;SDS011;7771;48.478;8.936;2023-09-19T09:17:58;3.05;;;1.20;;
15342;SDS011;7771;48.478;8.936;2023-09-19T09:20:26;3.75;;;1.17;;
15342;SDS011;7771;48.478;8.936;2023-09-19T09:22:55;4.00;;;1.73;;
15342;SDS011;7771;48.478;8.936;2023-09-19T09:25:22;2.78;;;1.70;;
15342;SDS011;7771;48.478;8.936;2023-09-19T09:27:59;4.05;;;1.40;;
15342;SDS011;7771;48.478;8.936;2023-09-19T09:30:32;2.65;;;1.20;;
15342;SDS011;7771;48.478;8.936;2023-09-19T09:33:09;2.85;;;1.00;;
15342;SDS011;7771;48.478;8.936;2023-09-19T09:35:36;2.12;;;1.30;;
15342;SDS011;7771;48.478;8.936;2023-09-19T09:38:04;3.00;;;1.20;;
15342;SDS011;7771;48.478;8.936;2023-09-19T09:40:43;2.58;;;1.37;;
15342;SDS011;7771;48.478;8.936;2023-09-19T09:42:58;3.30;;;1.00;;
15342;SDS011;7771;48.478;8.936;2023-09-19T09:45:25;2.17;;;1.12;;
15342;SDS011;7771;48.478;8.936;2023-09-19T09:47:54;2.30;;;1.40;;
15342;SDS011;7771;48.478;8.936;2023-09-19T09:50:25;2.67;;;1.08;;
15342;SDS011;7771;48.478;8.936;2023-09-19T09:52:56;1.15;;;1.05;;
15342;SDS011;7771;48.478;8.936;2023-09-19T09:55:25;3.97;;;1.30;;
15342;SDS011;7771;48.478;8.936;2023-09-19T09:58:23;1.62;;;1.10;;
15342;SDS011;7771;48.478;8.936;2023-09-19T10:00:51;2.17;;;1.12;;
15342;SDS011;7771;48.478;8.936;2023-09-19T10:03:13;3.08;;;1.60;;
15342;SDS011;7771;48.478;8.936;2023-09-19T10:05:33;1.42;;;1.05;;
15342;SDS011;7771;48.478;8.936;2023-09-19T10:08:09;2.60;;;1.40;;
15342;SDS011;7771;48.478;8.936;2023-09-19T10:10:30;2.78;;;1.48;;
15342;SDS011;7771;48.478;8.936;2023-09-19T10:13:05;3.72;;;1.37;;
15342;SDS011;7771;48.478;8.936;2023-09-19T10:15:32;1.65;;;0.80;;
15342;SDS011;7771;48.478;8.936;2023-09-19T10:18:00;2.67;;;1.52;;
15342;SDS011;7771;48.478;8.936;2023-09-19T10:20:25;1.25;;;1.00;;
15342;SDS011;7771;48.478;8.936;2023-09-19T10:22:59;3.03;;;2.20;;
15342;SDS011;7771;48.478;8.936;2023-09-19T10:25:28;2.80;;;1.77;;
15342;SDS011;7771;48.478;8.936;2023-09-19T10:27:54;3.00;;;1.80;;
15342;SDS011;7771;48.478;8.936;2023-09-19T10:30:22;2.08;;;1.35;;
15342;SDS011;7771;48.478;8.936;2023-09-19T10:32:56;2.05;;;1.23;;
15342;SDS011;7771;48.478;8.936;2023-09-19T10:35:19;2.92;;;1.75;;
15342;SDS011;7771;48.478;8.936;2023-09-19T10:37:45;2.37;;;1.42;;
15342;SDS011;7771;48.478;8.936;2023-09-19T10:40:13;2.87;;;1.30;;
15342;SDS011;7771;48.478;8.936;2023-09-19T10:42:40;2.05;;;1.33;;
15342;SDS011;7771;48.478;8.936;2023-09-19T10:45:08;1.60;;;1.27;;
15342;SDS011;7771;48.478;8.936;2023-09-19T10:47:36;3.78;;;1.25;;
15342;SDS011;7771;48.478;8.936;2023-09-19T10:50:03;2.08;;;1.20;;
15342;SDS011;7771;48.478;8.936;2023-09-19T10:52:30;2.45;;;1.10;;
15342;SDS011;7771;48.478;8.936;2023-09-19T10:54:57;3.00;;;1.10;;
15342;SDS011;7771;48.478;8.936;2023-09-19T10:57:24;3.60;;;2.17;;
15342;SDS011;7771;48.478;8.936;2023-09-19T11:05:28;3.50;;;1.95;;
15342;SDS011;7771;48.478;8.936;2023-09-19T11:07:57;1.27;;;0.90;;
15342;SDS011;7771;48.478;8.936;2023-09-19T11:10:54;2.80;;;1.40;;
15342;SDS011;7771;48.478;8.936;2023-09-19T11:13:30;2.10;;;1.30;;
15342;SDS011;7771;48.478;8.936;2023-09-19T11:16:05;2.70;;;1.87;;
15342;SDS011;7771;48.478;8.936;2023-09-19T11:24:27;2.05;;;1.20;;
15342;SDS011;7771;48.478;8.936;2023-09-19T11:26:51;2.15;;;1.23;;
15342;SDS011;7771;48.478;8.936;2023-09-19T11:29:24;1.33;;;1.10;;
15342;SDS011;7771;48.478;8.936;2023-09-19T11:31:51;2.05;;;1.20;;
15342;SDS011;7771;48.478;8.936;2023-09-19T11:36:57;2.80;;;1.60;;
15342;SDS011;7771;48.478;8.936;2023-09-19T11:39:25;2.70;;;1.60;;
15342;SDS011;7771;48.478;8.936;2023-09-19T11:41:52;2.72;;;1.35;;
15342;SDS011;7771;48.478;8.936;2023-09-19T11:44:34;2.30;;;1.15;;
15342;SDS011;7771;48.478;8.936;2023-09-19T11:47:00;1.35;;;0.98;;
15342;SDS011;7771;48.478;8.936;2023-09-19T11:49:28;2.08;;;0.98;;
15342;SDS011;7771;48.478;8.936;2023-09-19T11:51:56;1.65;;;0.98;;
15342;SDS011;7771;48.478;8.936;2023-09-19T11:54:22;2.03;;;1.10;;
15342;SDS011;7771;48.478;8.936;2023-09-19T11:56:49;1.55;;;1.10;;
15342;SDS011;7771;48.478;8.936;2023-09-19T11:59:21;2.83;;;1.20;;
15342;SDS011;7771;48.478;8.936;2023-09-19T12:01:51;2.25;;;1.40;;
15342;SDS011;7771;48.478;8.936;2023-09-19T12:04:16;1.37;;;1.00;;
15342;SDS011;7771;48.478;8.936;2023-09-19T12:06:43;1.75;;;1.00;;
15342;SDS011;7771;48.478;8.936;2023-09-19T12:09:12;1.90;;;0.80;;
15342;SDS011;7771;48.478;8.936;2023-09-19T12:11:41;2.00;;;0.80;;
15342;SDS011;7771;48.478;8.936;2023-09-19T12:14:06;3.53;;;1.00;;
15342;SDS011;7771;48.478;8.936;2023-09-19T12:16:33;1.55;;;1.25;;
15342;SDS011;7771;48.478;8.936;2023-09-19T12:19:17;2.25;;;1.10;;
15342;SDS011;7771;48.478;8.936;2023-09-19T12:21:29;1.77;;;0.98;;
15342;SDS011;7771;48.478;8.936;2023-09-19T12:23:58;1.20;;;0.95;;
15342;SDS011;7771;48.478;8.936;2023-09-19T12:26:26;1.73;;;1.35;;
15342;SDS011;7771;48.478;8.936;2023-09-19T12:28:53;1.37;;;1.10;;
15342;SDS011;7771;48.478;8.936;2023-09-19T12:31:20;1.17;;;1.05;;
15342;SDS011;7771;48.478;8.936;2023-09-19T12:33:47;1.73;;;1.02;;
15342;SDS011;7771;48.478;8.936;2023-09-19T12:36:21;3.42;;;1.33;;
15342;SDS011;7771;48.478;8.936;2023-09-19T12:38:47;4.03;;;1.40;;
15342;SDS011;7771;48.478;8.936;2023-09-19T12:41:14;1.55;;;1.12;;
15342;SDS011;7771;48.478;8.936;2023-09-19T12:43:42;1.87;;;1.02;;
15342;SDS011;7771;48.478;8.936;2023-09-19T12:46:09;1.37;;;0.98;;
15342;SDS011;7771;48.478;8.936;2023-09-19T12:48:36;1.20;;;1.10;;
15342;SDS011;7771;48.478;8.936;2023-09-19T12:51:05;2.10;;;1.00;;
15342;SDS011;7771;48.478;8.936;2023-09-19T12:53:32;1.45;;;1.30;;
15342;SDS011;7771;48.478;8.936;2023-09-19T12:55:58;2.15;;;1.00;;
15342;SDS011;7771;48.478;8.936;2023-09-19T12:58:25;1.95;;;0.90;;
15342;SDS011;7771;48.478;8.936;2023-09-19T13:00:51;1.83;;;1.17;;
15342;SDS011;7771;48.478;8.936;2023-09-19T13:03:26;2.50;;;1.40;;
15342;SDS011;7771;48.478;8.936;2023-09-19T13:05:55;1.20;;;0.98;;
15342;SDS011;7771;48.478;8.936;2023-09-19T13:08:23;2.30;;;1.17;;
15342;SDS011;7771;48.478;8.936;2023-09-19T13:11:01;1.20;;;1.10;;
15342;SDS011;7771;48.478;8.936;2023-09-19T13:13:45;1.73;;;1.00;;
15342;SDS011;7771;48.478;8.936;2023-09-19T13:16:11;3.35;;;1.10;;
15342;SDS011;7771;48.478;8.936;2023-09-19T13:18:41;2.53;;;1.20;;
15342;SDS011;7771;48.478;8.936;2023-09-19T13:21:09;2.00;;;1.00;;
15342;SDS011;7771;48.478;8.936;2023-09-19T13:23:36;1.52;;;1.12;;
15342;SDS011;7771;48.478;8.936;2023-09-19T13:26:05;1.75;;;1.08;;
15342;SDS011;7771;48.478;8.936;2023-09-19T13:28:31;1.05;;;0.95;;
15342;SDS011;7771;48.478;8.936;2023-09-19T13:30:58;2.28;;;1.00;;
15342;SDS011;7771;48.478;8.936;2023-09-19T13:33:25;3.35;;;0.90;;
15342;SDS011;7771;48.478;8.936;2023-09-19T13:35:53;1.05;;;0.95;;
15342;SDS011;7771;48.478;8.936;2023-09-19T13:38:21;2.87;;;1.23;;
15342;SDS011;7771;48.478;8.936;2023-09-19T13:40:48;4.03;;;1.20;;
15342;SDS011;7771;48.478;8.936;2023-09-19T13:43:15;1.98;;;1.50;;
15342;SDS011;7771;48.478;8.936;2023-09-19T13:45:43;3.00;;;1.15;;
15342;SDS011;7771;48.478;8.936;2023-09-19T13:48:09;3.35;;;1.45;;
15342;SDS011;7771;48.478;8.936;2023-09-19T13:50:38;3.20;;;1.05;;
15342;SDS011;7771;48.478;8.936;2023-09-19T13:53:05;4.43;;;1.83;;
15342;SDS011;7771;48.478;8.936;2023-09-19T13:55:32;1.23;;;1.00;;
15342;SDS011;7771;48.478;8.936;2023-09-19T13:57:59;2.30;;;1.10;;
15342;SDS011;7771;48.478;8.936;2023-09-19T14:00:26;1.52;;;1.40;;
15342;SDS011;7771;48.478;8.936;2023-09-19T14:02:53;2.60;;;1.23;;
15342;SDS011;7771;48.478;8.936;2023-09-19T14:05:20;1.55;;;0.95;;
15342;SDS011;7771;48.478;8.936;2023-09-19T14:07:47;1.58;;;1.00;;
15342;SDS011;7771;48.478;8.936;2023-09-19T14:10:13;2.42;;;2.17;;
15342;SDS011;7771;48.478;8.936;2023-09-19T14:12:40;4.05;;;0.98;;
15342;SDS011;7771;48.478;8.936;2023-09-19T14:15:08;3.03;;;1.37;;
15342;SDS011;7771;48.478;8.936;2023-09-19T14:17:35;2.20;;;1.00;;
15342;SDS011;7771;48.478;8.936;2023-09-19T14:20:02;4.18;;;1.12;;
15342;SDS011;7771;48.478;8.936;2023-09-19T14:22:32;1.42;;;0.90;;
15342;SDS011;7771;48.478;8.936;2023-09-19T14:24:58;2.28;;;1.35;;
15342;SDS011;7771;48.478;8.936;2023-09-19T14:27:25;1.90;;;1.17;;
15342;SDS011;7771;48.478;8.936;2023-09-19T14:29:52;1.00;;;0.80;;
15342;SDS011;7771;48.478;8.936;2023-09-19T14:32:20;1.20;;;1.00;;
15342;SDS011;7771;48.478;8.936;2023-09-19T14:34:47;1.42;;;0.82;;
15342;SDS011;7771;48.478;8.936;2023-09-19T14:37:13;2.67;;;1.48;;
15342;SDS011;7771;48.478;8.936;2023-09-19T14:39:41;1.67;;;1.00;;
15342;SDS011;7771;48.478;8.936;2023-09-19T14:42:08;1.98;;;1.10;;
15342;SDS011;7771;48.478;8.936;2023-09-19T14:44:36;1.15;;;0.80;;
15342;SDS011;7771;48.478;8.936;2023-09-19T14:47:04;1.83;;;1.00;;
15342;SDS011;7771;48.478;8.936;2023-09-19T14:49:33;1.40;;;1.10;;
15342;SDS011;7771;48.478;8.936;2023-09-19T14:52:01;1.48;;;1.00;;
15342;SDS011;7771;48.478;8.936;2023-09-19T14:54:29;1.90;;;1.20;;
15342;SDS011;7771;48.478;8.936;2023-09-19T14:56:57;2.28;;;1.10;;
15342;SDS011;7771;48.478;8.936;2023-09-19T14:59:23;1.08;;;0.98;;
15342;SDS011;7771;48.478;8.936;2023-09-19T15:01:51;2.80;;;1.37;;
15342;SDS011;7771;48.478;8.936;2023-09-19T15:04:19;1.92;;;1.42;;
15342;SDS011;7771;48.478;8.936;2023-09-19T15:06:46;2.47;;;1.83;;
15342;SDS011;7771;48.478;8.936;2023-09-19T15:09:12;1.77;;;1.50;;
15342;SDS011;7771;48.478;8.936;2023-09-19T15:11:41;2.97;;;1.52;;
15342;SDS011;7771;48.478;8.936;2023-09-19T15:14:07;1.37;;;1.27;;
15342;SDS011;7771;48.478;8.936;2023-09-19T15:16:34;2.85;;;1.40;;
15342;SDS011;7771;48.478;8.936;2023-09-19T15:19:01;1.58;;;1.20;;
15342;SDS011;7771;48.478;8.936;2023-09-19T15:21:28;1.80;;;1.15;;
15342;SDS011;7771;48.478;8.936;2023-09-19T15:23:55;1.95;;;1.40;;
15342;SDS011;7771;48.478;8.936;2023-09-19T15:26:23;2.45;;;1.25;;